Time;durP1;ratioP1;P1;durP2;ratioP2;P2;SDS_P1;SDS_P2;PMS_P1;PMS_P2;Temp;Humidity;BMP_temperature;BMP_pressure;BME280_temperature;BME280_humidity;BME280_pressure;Samples;Min_cycle;Max_cycle;Signal;HPM_P1;HPM_P2
2023/09/28 00:01:59;;;;;;;12.20;3.33;;;21.10;1.00;;;;;;5095933;28;20176;-73
2023/09/28 00:04:25;;;;;;;3.95;3.25;;;21.10;1.00;;;;;;5095930;28;20167;-73
2023/09/28 00:06:51;;;;;;;4.68;3.50;;;21.00;1.00;;;;;;5095692;28;20204;-73
2023/09/28 00:09:17;;;;;;;3.83;3.33;;;21.00;1.00;;;;;;5095666;28;20168;-72
2023/09/28 00:11:44;;;;;;;5.13;3.20;;;21.00;1.00;;;;;;5095908;28;20519;-72
2023/09/28 00:14:10;;;;;;;6.95;3.15;;;21.00;1.00;;;;;;5095328;28;20164;-73
2023/09/28 00:16:36;;;;;;;3.72;3.42;;;20.90;1.00;;;;;;5095528;28;20190;-73
2023/09/28 00:19:01;;;;;;;5.22;3.47;;;20.80;1.00;;;;;;5095569;28;20164;-72
2023/09/28 00:21:27;;;;;;;8.23;3.22;;;20.70;3.00;;;;;;5095271;28;20682;-72
2023/09/28 00:23:52;;;;;;;4.13;3.25;;;20.60;8.30;;;;;;5095442;28;20530;-72
2023/09/28 00:26:19;;;;;;;3.70;3.28;;;20.60;12.20;;;;;;5095373;28;20207;-74
2023/09/28 00:28:45;;;;;;;4.70;3.03;;;20.50;15.90;;;;;;5095241;28;20210;-74
2023/09/28 00:31:10;;;;;;;5.18;3.38;;;20.50;17.60;;;;;;5095453;28;20175;-73
2023/09/28 00:33:36;;;;;;;4.35;3.33;;;20.50;20.50;;;;;;5095189;28;20689;-73
2023/09/28 00:36:02;;;;;;;4.18;3.78;;;20.40;24.40;;;;;;5095236;28;20195;-73
2023/09/28 00:38:27;;;;;;;5.82;3.60;;;20.40;27.20;;;;;;5095225;28;20179;-73
2023/09/28 00:40:53;;;;;;;3.78;3.47;;;20.40;28.90;;;;;;5095264;28;20172;-73
2023/09/28 00:43:28;;;;;;;5.68;3.30;;;20.30;35.00;;;;;;5095001;28;20178;-73
2023/09/28 00:45:53;;;;;;;7.75;3.58;;;20.20;38.90;;;;;;5094608;28;20208;-74
2023/09/28 00:48:20;;;;;;;3.55;3.20;;;20.10;43.20;;;;;;5094919;28;20261;-72
2023/09/28 00:50:46;;;;;;;3.72;3.42;;;20.20;44.10;;;;;;5093907;28;20627;-73
2023/09/28 00:53:13;;;;;;;7.28;3.60;;;20.10;45.40;;;;;;5094911;28;20163;-73
2023/09/28 00:55:39;;;;;;;4.00;3.60;;;20.10;48.40;;;;;;5094881;28;20203;-72
2023/09/28 00:58:05;;;;;;;4.25;3.85;;;20.10;49.70;;;;;;5094432;28;20172;-72
2023/09/28 01:00:33;;;;;;;5.03;3.80;;;20.00;53.90;;;;;;5094865;28;20186;-72
2023/09/28 01:03:05;;;;;;;3.80;3.50;;;19.90;57.00;;;;;;5094614;28;20172;-75
2023/09/28 01:05:33;;;;;;;5.00;4.15;;;19.90;61.50;;;;;;5094801;28;20172;-72
2023/09/28 01:08:09;;;;;;;4.80;3.72;;;19.90;65.40;;;;;;5094648;28;20175;-72
2023/09/28 01:10:35;;;;;;;5.97;4.15;;;19.80;68.40;;;;;;5095017;28;20175;-73
2023/09/28 01:13:11;;;;;;;4.03;3.63;;;19.80;70.10;;;;;;5094345;28;20171;-72
2023/09/28 01:15:41;;;;;;;4.13;3.70;;;19.80;74.20;;;;;;5094375;28;20203;-74
2023/09/28 01:18:11;;;;;;;4.32;3.85;;;19.70;77.40;;;;;;5094479;28;20183;-73
2023/09/28 01:20:38;;;;;;;4.72;4.03;;;19.70;79.80;;;;;;5094424;28;20231;-74
2023/09/28 01:23:06;;;;;;;3.85;3.47;;;19.70;80.90;;;;;;5094531;28;20191;-74
2023/09/28 01:25:33;;;;;;;5.05;3.70;;;19.60;84.00;;;;;;5092652;28;20172;-72
2023/09/28 01:28:00;;;;;;;7.55;3.85;;;19.60;90.30;;;;;;5094190;28;20176;-72
2023/09/28 01:30:26;;;;;;;5.07;3.92;;;19.60;90.50;;;;;;5094331;28;20184;-72
2023/09/28 01:32:52;;;;;;;6.32;4.07;;;19.60;91.70;;;;;;5094148;28;20519;-72
2023/09/28 01:35:18;;;;;;;7.70;3.85;;;19.60;92.00;;;;;;5094248;28;20164;-72
2023/09/28 01:38:10;;;;;;;4.30;3.90;;;19.60;93.70;;;;;;5093928;28;20204;-71
2023/09/28 01:40:37;;;;;;;6.03;4.60;;;19.50;95.10;;;;;;5093108;28;20180;-74
2023/09/28 01:43:03;;;;;;;5.43;4.43;;;19.50;96.90;;;;;;5093996;28;20199;-71
2023/09/28 01:45:28;;;;;;;4.57;4.13;;;19.40;97.90;;;;;;5094043;28;20663;-73
2023/09/28 01:47:54;;;;;;;5.30;4.38;;;19.40;99.90;;;;;;5093948;28;20693;-73
2023/09/28 01:50:20;;;;;;;5.00;4.18;;;19.30;99.90;;;;;;5094032;28;20172;-73
2023/09/28 01:52:45;;;;;;;5.75;4.43;;;19.30;99.90;;;;;;5093660;28;20172;-72
2023/09/28 01:55:11;;;;;;;7.30;4.63;;;19.30;99.90;;;;;;5093367;28;20222;-73
2023/09/28 01:57:37;;;;;;;5.18;4.65;;;19.30;99.90;;;;;;5091808;28;20172;-72
2023/09/28 02:00:18;;;;;;;5.18;4.78;;;19.20;99.90;;;;;;5093664;28;20515;-73
2023/09/28 02:02:45;;;;;;;5.80;4.78;;;19.10;99.90;;;;;;5093747;28;20167;-73
2023/09/28 02:05:11;;;;;;;7.47;4.38;;;19.10;99.90;;;;;;5093832;28;20662;-73
2023/09/28 02:07:37;;;;;;;6.20;4.07;;;19.00;99.90;;;;;;5093407;28;20199;-73
2023/09/28 02:10:07;;;;;;;5.75;4.82;;;19.00;99.90;;;;;;5093322;28;20171;-71
2023/09/28 02:12:33;;;;;;;5.43;4.90;;;19.00;99.90;;;;;;5093484;28;20168;-73
2023/09/28 02:15:04;;;;;;;7.82;4.75;;;19.00;99.90;;;;;;5093659;28;20232;-73
2023/09/28 02:17:30;;;;;;;6.45;4.72;;;19.00;99.90;;;;;;5093335;28;20202;-73
2023/09/28 02:19:56;;;;;;;5.72;4.40;;;19.00;99.90;;;;;;5092270;28;20623;-73
2023/09/28 02:22:22;;;;;;;5.00;4.50;;;19.00;99.90;;;;;;5093296;28;20211;-73
2023/09/28 02:24:50;;;;;;;5.38;4.78;;;19.00;99.90;;;;;;5091823;28;20171;-73
2023/09/28 02:27:17;;;;;;;5.05;4.35;;;18.90;99.90;;;;;;5093160;28;20655;-73
2023/09/28 02:29:46;;;;;;;5.95;4.80;;;18.90;99.90;;;;;;5093353;28;20688;-73
2023/09/28 02:32:14;;;;;;;7.63;4.65;;;18.90;99.90;;;;;;5093252;28;20258;-73
2023/09/28 02:34:41;;;;;;;6.00;5.05;;;19.00;99.90;;;;;;5093135;28;20168;-73
2023/09/28 02:37:06;;;;;;;9.90;5.30;;;19.10;99.90;;;;;;5093260;28;20221;-73
2023/09/28 02:39:36;;;;;;;5.35;4.85;;;19.00;99.90;;;;;;5092880;28;20563;-73
2023/09/28 02:42:07;;;;;;;7.03;5.15;;;19.10;99.90;;;;;;5092998;28;20183;-72
2023/09/28 02:44:34;;;;;;;6.22;4.93;;;19.10;99.90;;;;;;5093336;28;20168;-73
2023/09/28 02:47:00;;;;;;;8.40;4.78;;;19.10;99.90;;;;;;5093101;28;20196;-72
2023/09/28 02:49:27;;;;;;;10.45;4.97;;;19.20;99.90;;;;;;5093057;28;20175;-73
2023/09/28 02:51:53;;;;;;;6.43;5.07;;;19.10;99.90;;;;;;5093050;28;20175;-73
2023/09/28 02:54:19;;;;;;;6.10;5.35;;;19.10;99.90;;;;;;5092846;28;20259;-73
2023/09/28 02:56:45;;;;;;;7.05;5.25;;;19.10;99.90;;;;;;5092859;28;20620;-73
2023/09/28 02:59:10;;;;;;;8.43;5.38;;;19.10;99.90;;;;;;5093078;28;20654;-73
2023/09/28 03:01:36;;;;;;;5.57;4.78;;;19.10;99.90;;;;;;5093015;28;20195;-73
2023/09/28 03:04:02;;;;;;;9.98;5.57;;;19.10;99.90;;;;;;5092975;28;20160;-71
2023/09/28 03:06:36;;;;;;;9.35;5.22;;;19.10;99.90;;;;;;5092749;28;20199;-73
2023/09/28 03:09:03;;;;;;;6.95;5.13;;;19.00;99.90;;;;;;5096192;28;20163;-73
2023/09/28 03:11:28;;;;;;;6.90;5.47;;;19.10;99.90;;;;;;5096926;28;20635;-72
2023/09/28 03:13:54;;;;;;;8.90;5.45;;;19.10;99.90;;;;;;5096684;28;20175;-73
2023/09/28 03:16:19;;;;;;;5.80;5.22;;;19.10;99.90;;;;;;5096692;28;20222;-71
2023/09/28 03:18:45;;;;;;;7.80;5.18;;;19.10;99.90;;;;;;5096525;28;20194;-72
2023/09/28 03:21:10;;;;;;;8.85;5.85;;;19.00;99.90;;;;;;5096342;28;20223;-72
2023/09/28 03:23:36;;;;;;;7.00;5.30;;;19.00;99.90;;;;;;5096239;28;20262;-72
2023/09/28 03:26:01;;;;;;;9.35;5.50;;;18.90;99.90;;;;;;5095161;28;20208;-72
2023/09/28 03:28:30;;;;;;;7.30;5.78;;;18.80;99.90;;;;;;5096545;28;20246;-73
2023/09/28 03:30:56;;;;;;;6.75;5.63;;;18.80;99.90;;;;;;5096166;28;20172;-73
2023/09/28 03:33:21;;;;;;;5.90;5.13;;;18.80;99.90;;;;;;5096328;28;20602;-72
2023/09/28 03:35:47;;;;;;;6.32;5.63;;;18.70;99.90;;;;;;5096251;28;20582;-73
2023/09/28 03:38:13;;;;;;;9.15;5.28;;;18.70;99.90;;;;;;5095998;28;20168;-73
2023/09/28 03:40:38;;;;;;;6.32;5.72;;;18.60;99.90;;;;;;5096275;28;20254;-71
2023/09/28 03:43:04;;;;;;;9.93;6.07;;;18.50;99.90;;;;;;5095850;28;20164;-73
2023/09/28 03:45:30;;;;;;;7.70;5.78;;;18.50;99.90;;;;;;5096023;28;20186;-71
2023/09/28 03:47:55;;;;;;;9.98;5.70;;;18.50;99.90;;;;;;5094814;28;20179;-72
2023/09/28 03:50:22;;;;;;;8.60;6.32;;;18.50;99.90;;;;;;5095602;28;20171;-73
2023/09/28 03:52:48;;;;;;;6.15;5.47;;;18.50;99.90;;;;;;5095875;28;20168;-72
2023/09/28 03:55:18;;;;;;;8.70;5.68;;;18.40;99.90;;;;;;5094297;28;20263;-72
2023/09/28 03:57:44;;;;;;;10.45;6.18;;;18.40;99.90;;;;;;5095787;28;20172;-73
2023/09/28 04:00:13;;;;;;;7.57;5.93;;;18.40;99.90;;;;;;5095825;28;20523;-72
2023/09/28 04:02:52;;;;;;;7.95;5.22;;;18.40;99.90;;;;;;5095605;28;20164;-73
2023/09/28 04:05:17;;;;;;;8.38;4.70;;;18.40;99.90;;;;;;5095023;28;20203;-71
2023/09/28 04:07:43;;;;;;;10.02;5.55;;;18.30;99.90;;;;;;5095139;28;20289;-70
2023/09/28 04:10:10;;;;;;;6.60;4.85;;;18.20;99.90;;;;;;5095190;28;20172;-71
2023/09/28 04:12:36;;;;;;;13.63;5.03;;;18.20;99.90;;;;;;5095397;28;20703;-71
2023/09/28 04:15:02;;;;;;;8.90;4.22;;;18.10;99.90;;;;;;5095428;28;20304;-73
2023/09/28 04:17:28;;;;;;;9.35;3.83;;;18.00;99.90;;;;;;5095072;28;20211;-71
2023/09/28 04:19:54;;;;;;;8.90;4.32;;;18.00;99.90;;;;;;5094118;28;20204;-71
2023/09/28 04:22:19;;;;;;;9.68;4.10;;;18.00;99.90;;;;;;5094677;28;20262;-72
2023/09/28 04:24:45;;;;;;;13.00;4.43;;;17.90;99.90;;;;;;5095404;28;20619;-72
2023/09/28 04:27:11;;;;;;;11.05;3.88;;;17.90;99.90;;;;;;5094844;28;20595;-72
2023/09/28 04:29:38;;;;;;;10.50;3.60;;;17.80;99.90;;;;;;5095224;28;20514;-71
2023/09/28 04:32:03;;;;;;;10.87;3.60;;;17.80;99.90;;;;;;5094810;28;20179;-70
2023/09/28 04:34:29;;;;;;;11.07;4.03;;;17.70;99.90;;;;;;5094460;28;20175;-72
2023/09/28 04:36:57;;;;;;;7.80;3.33;;;17.70;99.90;;;;;;5095098;28;20623;-71
2023/09/28 04:39:24;;;;;;;14.05;4.93;;;17.60;99.90;;;;;;5094770;28;20166;-72
2023/09/28 04:41:52;;;;;;;13.10;3.85;;;17.70;99.90;;;;;;5094355;28;20168;-71
2023/09/28 04:44:17;;;;;;;10.85;3.80;;;17.70;99.90;;;;;;5094644;28;20506;-71
2023/09/28 04:46:43;;;;;;;13.07;4.28;;;17.60;99.90;;;;;;5094189;28;20203;-71
2023/09/28 04:49:08;;;;;;;10.00;3.70;;;17.50;99.90;;;;;;5094263;28;20532;-72
2023/09/28 04:51:34;;;;;;;15.77;4.80;;;17.40;99.90;;;;;;5094714;28;20168;-71
2023/09/28 04:54:03;;;;;;;8.57;4.38;;;17.40;99.90;;;;;;5094511;28;20571;-71
2023/09/28 04:56:28;;;;;;;12.40;4.30;;;17.40;99.90;;;;;;5094310;28;20179;-72
2023/09/28 04:58:54;;;;;;;14.27;4.18;;;17.30;99.90;;;;;;5094299;28;20175;-71
2023/09/28 05:01:20;;;;;;;13.10;4.17;;;17.30;99.90;;;;;;5094165;28;20204;-72
2023/09/28 05:03:45;;;;;;;15.55;4.40;;;17.30;99.90;;;;;;5093924;28;20175;-72
2023/09/28 05:06:12;;;;;;;14.85;4.47;;;17.30;99.90;;;;;;5093930;28;20199;-73
2023/09/28 05:08:38;;;;;;;13.80;4.20;;;17.20;99.90;;;;;;5094191;28;20177;-73
2023/09/28 05:11:03;;;;;;;18.47;4.47;;;17.10;99.90;;;;;;5092605;28;20696;-73
2023/09/28 05:13:30;;;;;;;15.63;3.90;;;17.10;99.90;;;;;;5093678;28;20172;-72
2023/09/28 05:15:55;;;;;;;13.33;4.13;;;17.10;99.90;;;;;;5094256;28;20674;-72
2023/09/28 05:18:21;;;;;;;17.27;4.93;;;17.10;99.90;;;;;;5074625;28;20283;-71
2023/09/28 05:20:47;;;;;;;15.93;5.00;;;17.00;99.90;;;;;;5093208;28;20524;-72
2023/09/28 05:23:12;;;;;;;19.90;4.73;;;17.00;99.90;;;;;;5093651;28;20531;-72
2023/09/28 05:25:38;;;;;;;18.43;5.00;;;17.00;99.90;;;;;;5093036;28;20396;-72
2023/09/28 05:28:04;;;;;;;21.87;4.80;;;17.00;99.90;;;;;;5092198;28;20164;-72
2023/09/28 05:30:30;;;;;;;17.97;4.63;;;16.90;99.90;;;;;;5093343;28;20206;-71
2023/09/28 05:32:56;;;;;;;20.60;4.90;;;16.90;99.90;;;;;;5092890;28;20277;-72
2023/09/28 05:35:25;;;;;;;20.90;5.03;;;16.90;99.90;;;;;;5091642;28;20254;-72
2023/09/28 05:37:50;;;;;;;26.10;5.13;;;16.90;99.90;;;;;;5091569;28;20174;-72
2023/09/28 05:40:16;;;;;;;19.93;4.90;;;16.90;99.90;;;;;;5092903;28;20179;-74
2023/09/28 05:42:42;;;;;;;20.77;5.10;;;16.90;99.90;;;;;;5093122;28;20176;-73
2023/09/28 05:45:09;;;;;;;23.53;5.60;;;16.90;99.90;;;;;;5092695;28;20179;-73
2023/09/28 05:47:34;;;;;;;31.67;4.93;;;16.90;99.90;;;;;;5092347;28;20674;-72
2023/09/28 05:50:01;;;;;;;30.93;5.80;;;16.90;99.90;;;;;;5092747;28;20178;-74
2023/09/28 05:52:28;;;;;;;19.60;5.33;;;17.00;99.90;;;;;;5092243;28;20221;-72
2023/09/28 05:54:53;;;;;;;23.13;5.57;;;16.90;99.90;;;;;;5092856;28;20535;-72
2023/09/28 05:57:22;;;;;;;21.13;5.23;;;17.00;99.90;;;;;;5092925;28;20183;-73
2023/09/28 05:59:51;;;;;;;19.77;5.07;;;17.10;99.90;;;;;;5092625;28;20180;-72
2023/09/28 06:02:21;;;;;;;15.67;4.03;;;17.10;99.90;;;;;;5092053;28;20195;-73
2023/09/28 06:04:47;;;;;;;17.03;4.37;;;17.10;99.90;;;;;;5092817;28;20229;-73
2023/09/28 06:07:13;;;;;;;19.73;5.03;;;17.20;99.90;;;;;;5092493;28;20208;-72
2023/09/28 06:09:40;;;;;;;13.33;4.60;;;17.20;99.90;;;;;;5091990;28;20263;-72
2023/09/28 06:12:06;;;;;;;22.13;5.13;;;17.30;99.90;;;;;;5092294;28;20204;-72
2023/09/28 06:14:33;;;;;;;15.97;4.50;;;17.40;99.90;;;;;;5092227;28;20205;-71
2023/09/28 06:16:59;;;;;;;22.77;5.23;;;17.50;99.90;;;;;;5092580;28;20192;-72
2023/09/28 06:19:25;;;;;;;26.40;5.10;;;17.60;99.90;;;;;;5091224;28;20168;-72
2023/09/28 06:21:51;;;;;;;16.23;4.85;;;17.60;99.90;;;;;;5091957;28;20295;-74
2023/09/28 06:24:18;;;;;;;15.52;4.68;;;17.70;99.90;;;;;;5090862;28;20179;-73
2023/09/28 06:26:44;;;;;;;18.05;4.60;;;17.90;99.90;;;;;;5092117;28;20215;-71
2023/09/28 06:29:10;;;;;;;16.10;4.53;;;18.00;99.90;;;;;;5091789;28;20178;-73
2023/09/28 06:31:36;;;;;;;21.98;4.78;;;18.00;99.90;;;;;;5091463;28;20194;-73
2023/09/28 06:34:02;;;;;;;23.55;4.78;;;18.10;98.40;;;;;;5092472;28;20248;-72
2023/09/28 06:36:28;;;;;;;22.00;6.25;;;18.20;99.40;;;;;;5092602;28;20600;-73
2023/09/28 06:38:55;;;;;;;20.35;5.10;;;18.40;95.00;;;;;;5091917;28;20572;-74
2023/09/28 06:41:20;;;;;;;19.25;5.35;;;18.60;92.70;;;;;;5092265;28;20534;-72
2023/09/28 06:43:48;;;;;;;18.20;5.22;;;18.50;85.60;;;;;;5097697;28;20255;-73
2023/09/28 06:46:14;;;;;;;16.27;4.97;;;18.70;81.30;;;;;;5098942;28;20198;-74
2023/09/28 06:48:39;;;;;;;19.77;4.93;;;19.00;73.60;;;;;;5098880;28;20191;-74
2023/09/28 06:51:05;;;;;;;22.45;5.60;;;19.30;58.60;;;;;;5098606;28;20657;-74
2023/09/28 06:53:32;;;;;;;26.08;5.30;;;19.90;37.50;;;;;;5099031;28;20250;-75
2023/09/28 06:56:01;;;;;;;23.20;5.30;;;20.60;10.10;;;;;;5099161;28;20198;-75
2023/09/28 06:58:27;;;;;;;21.85;6.03;;;21.40;1.00;;;;;;5098417;28;20167;-76
2023/09/28 07:00:53;;;;;;;17.17;5.53;;;22.00;1.00;;;;;;5098352;28;20175;-75
2023/09/28 07:03:20;;;;;;;18.85;5.13;;;22.60;1.00;;;;;;5099355;28;20176;-75
2023/09/28 07:05:45;;;;;;;16.08;4.45;;;23.40;1.00;;;;;;5098334;28;20236;-76
2023/09/28 07:08:12;;;;;;;14.25;4.60;;;24.00;99.90;;;;;;5098484;28;20631;-77
2023/09/28 07:10:38;;;;;;;21.95;5.00;;;23.90;99.90;;;;;;5097537;28;20551;-76
2023/09/28 07:13:05;;;;;;;17.00;5.05;;;24.50;99.90;;;;;;5098412;28;20175;-78
2023/09/28 07:15:32;;;;;;;16.23;5.00;;;25.10;99.90;;;;;;5097684;28;20643;-76
2023/09/28 07:17:57;;;;;;;15.73;4.68;;;25.90;1.00;;;;;;5099088;28;20192;-78
2023/09/28 07:20:27;;;;;;;21.05;4.70;;;26.00;1.00;;;;;;5098171;28;20534;-78
2023/09/28 07:22:53;;;;;;;15.18;4.07;;;26.10;1.00;;;;;;5098773;28;20324;-77
2023/09/28 07:25:20;;;;;;;19.67;4.82;;;26.30;99.90;;;;;;5098871;28;20255;-74
2023/09/28 07:27:49;;;;;;;18.08;4.93;;;25.90;99.90;;;;;;5098361;28;20208;-76
2023/09/28 07:30:19;;;;;;;12.60;4.25;;;25.60;1.00;;;;;;5098453;28;20254;-75
2023/09/28 07:32:48;;;;;;;18.38;5.22;;;25.20;1.00;;;;;;5098355;28;20698;-76
2023/09/28 07:35:15;;;;;;;17.35;5.40;;;25.30;1.00;;;;;;5098907;28;20175;-73
2023/09/28 07:37:42;;;;;;;15.93;4.78;;;25.50;99.90;;;;;;5098478;28;20211;-71
2023/09/28 07:40:12;;;;;;;19.60;5.05;;;25.40;1.00;;;;;;5098015;28;20180;-72
2023/09/28 07:42:41;;;;;;;16.33;4.40;;;25.70;1.00;;;;;;5080403;28;20230;-73
2023/09/28 07:45:07;;;;;;;13.18;4.60;;;25.90;99.90;;;;;;5080571;28;20230;-74
2023/09/28 07:47:33;;;;;;;15.20;4.50;;;26.10;1.00;;;;;;5099347;28;20221;-71
2023/09/28 07:49:59;;;;;;;13.52;4.40;;;26.60;99.90;;;;;;5109488;28;20171;-70
2023/09/28 07:52:25;;;;;;;13.27;4.03;;;26.30;1.00;;;;;;5101720;28;20182;-73
2023/09/28 07:54:50;;;;;;;18.20;4.97;;;26.50;1.00;;;;;;5110407;28;20178;-71
2023/09/28 07:57:17;;;;;;;15.68;4.90;;;26.60;1.00;;;;;;5099228;28;20246;-72
2023/09/28 07:59:43;;;;;;;14.65;4.38;;;27.00;61.20;;;;;;5105687;28;20632;-70
2023/09/28 08:02:12;;;;;;;16.02;4.60;;;27.60;1.00;;;;;;5099032;28;20202;-69
2023/09/28 08:04:38;;;;;;;12.13;4.75;;;28.40;99.90;;;;;;5113895;28;20626;-71
2023/09/28 08:07:04;;;;;;;13.95;5.03;;;28.60;94.10;;;;;;5110765;27;20192;-72
2023/09/28 08:09:30;;;;;;;16.92;5.70;;;29.50;1.00;;;;;;5094148;28;20160;-71
2023/09/28 08:11:56;;;;;;;17.15;5.22;;;30.00;1.00;;;;;;5104276;28;20190;-73
2023/09/28 08:14:22;;;;;;;12.70;4.45;;;30.00;1.00;;;;;;5114834;28;20179;-72
2023/09/28 08:16:48;;;;;;;12.25;5.13;;;29.00;1.00;;;;;;5095675;28;20671;-72
2023/09/28 08:19:14;;;;;;;17.85;4.85;;;29.00;1.00;;;;;;5109393;28;20523;-72
2023/09/28 08:21:40;;;;;;;15.25;4.78;;;28.00;1.00;;;;;;5102632;28;20230;-77
2023/09/28 08:24:07;;;;;;;17.92;4.68;;;28.20;1.00;;;;;;5102047;28;20211;-73
2023/09/28 08:26:33;;;;;;;12.68;4.60;;;28.00;1.00;;;;;;5109905;28;20199;-74
2023/09/28 08:28:59;;;;;;;14.38;4.50;;;28.20;1.00;;;;;;5097368;28;20213;-75
2023/09/28 08:31:24;;;;;;;10.93;4.03;;;29.00;1.00;;;;;;5114017;28;20524;-75
2023/09/28 08:33:52;;;;;;;17.60;4.70;;;29.70;1.00;;;;;;5113510;28;20694;-74
2023/09/28 08:36:17;;;;;;;15.05;4.50;;;29.70;1.00;;;;;;5099488;28;20191;-75
2023/09/28 08:38:44;;;;;;;12.02;4.53;;;29.30;1.00;;;;;;5093898;28;20626;-73
2023/09/28 08:41:10;;;;;;;10.98;4.00;;;29.70;1.00;;;;;;5098297;28;20182;-74
2023/09/28 08:44:06;;;;;;;14.93;4.18;;;30.30;1.00;;;;;;5112994;28;20174;-75
2023/09/28 08:46:40;;;;;;;11.85;4.07;;;30.10;1.00;;;;;;5034435;28;20209;-73
2023/09/28 08:49:07;;;;;;;12.52;4.45;;;30.20;1.00;;;;;;5018880;28;20315;-74
2023/09/28 08:51:44;;;;;;;12.95;4.03;;;29.70;1.00;;;;;;5043747;28;20284;-71
2023/09/28 08:54:11;;;;;;;16.27;4.50;;;29.50;1.00;;;;;;5026965;28;20668;-71
2023/09/28 08:56:41;;;;;;;14.68;4.93;;;28.40;1.00;;;;;;5050010;28;20288;-71
2023/09/28 08:59:09;;;;;;;14.63;4.38;;;28.30;1.00;;;;;;5035252;28;20204;-72
2023/09/28 09:01:36;;;;;;;12.00;4.38;;;27.90;1.00;;;;;;5049687;28;20201;-71
2023/09/28 09:04:03;;;;;;;12.02;3.88;;;28.00;1.00;;;;;;5027965;28;20746;-73
2023/09/28 09:06:30;;;;;;;10.93;4.10;;;28.40;1.00;;;;;;5045819;28;20204;-70
2023/09/28 09:09:03;;;;;;;11.73;4.13;;;28.50;1.00;;;;;;5049582;28;20899;-71
2023/09/28 09:11:31;;;;;;;14.15;4.38;;;27.70;1.00;;;;;;5043380;28;20246;-70
2023/09/28 09:13:57;;;;;;;11.85;4.28;;;27.00;1.00;;;;;;5030864;28;20173;-70
2023/09/28 09:16:26;;;;;;;14.32;4.10;;;26.90;99.90;;;;;;5044901;28;20212;-71
2023/09/28 09:18:53;;;;;;;11.90;4.35;;;27.30;97.80;;;;;;5031316;28;20296;-70
2023/09/28 09:21:19;;;;;;;19.00;4.20;;;26.70;99.90;;;;;;5036349;28;20217;-69
2023/09/28 09:24:14;;;;;;;15.57;4.10;;;26.00;99.90;;;;;;5094408;28;20249;-69
2023/09/28 09:26:44;;;;;;;12.55;3.97;;;25.60;1.00;;;;;;5030183;28;20318;-68
2023/09/28 09:29:11;;;;;;;15.27;4.50;;;25.40;99.90;;;;;;5030471;28;20178;-70
2023/09/28 09:31:41;;;;;;;11.10;3.85;;;25.40;99.90;;;;;;5030100;28;20197;-69
2023/09/28 09:34:18;;;;;;;13.55;4.18;;;25.60;40.80;;;;;;5031044;28;20169;-69
2023/09/28 09:36:52;;;;;;;12.63;4.20;;;25.00;99.90;;;;;;5030307;28;20233;-71
2023/09/28 09:39:22;;;;;;;16.38;4.13;;;25.00;1.00;;;;;;5029812;28;20630;-72
2023/09/28 09:41:49;;;;;;;10.02;3.50;;;25.60;99.90;;;;;;5042372;28;20177;-72
2023/09/28 09:44:18;;;;;;;9.93;3.65;;;25.80;1.00;;;;;;5036667;28;20178;-72
2023/09/28 09:46:46;;;;;;;13.45;3.95;;;25.80;1.00;;;;;;5030084;28;20332;-70
2023/09/28 09:49:13;;;;;;;13.45;4.10;;;26.50;99.90;;;;;;5033844;28;20172;-71
2023/09/28 09:51:40;;;;;;;18.80;4.65;;;27.30;41.60;;;;;;5030155;28;20268;-70
2023/09/28 09:54:08;;;;;;;14.70;3.85;;;27.60;1.00;;;;;;5029663;28;20176;-70
2023/09/28 09:56:35;;;;;;;14.30;4.05;;;26.90;1.00;;;;;;5029779;28;20189;-70
2023/09/28 09:59:05;;;;;;;13.35;3.92;;;26.20;9.20;;;;;;5030783;28;20329;-70
2023/09/28 10:01:32;;;;;;;10.15;3.75;;;25.60;99.90;;;;;;5029420;28;20269;-70
2023/09/28 10:04:02;;;;;;;14.55;3.58;;;26.40;99.90;;;;;;5089983;28;20264;-78
2023/09/28 10:06:28;;;;;;;11.90;4.03;;;26.60;1.00;;;;;;5097086;28;20302;-77
2023/09/28 10:08:54;;;;;;;11.48;3.90;;;26.10;1.00;;;;;;5094178;28;20176;-71
2023/09/28 10:11:20;;;;;;;13.43;3.97;;;25.60;99.90;;;;;;5105776;28;20608;-72
2023/09/28 10:13:49;;;;;;;12.80;3.80;;;25.20;1.00;;;;;;5089894;28;20286;-71
2023/09/28 10:16:17;;;;;;;13.02;3.78;;;25.70;1.00;;;;;;5105438;28;20187;-72
2023/09/28 10:18:46;;;;;;;10.85;3.92;;;25.80;99.90;;;;;;5094598;28;20198;-71
2023/09/28 10:21:14;;;;;;;11.43;4.00;;;25.20;99.90;;;;;;5105568;28;20666;-73
2023/09/28 10:23:40;;;;;;;12.80;4.00;;;25.00;1.00;;;;;;5100282;28;20602;-75
2023/09/28 10:26:14;;;;;;;10.13;3.65;;;24.50;1.00;;;;;;5098877;27;20195;-74
2023/09/28 10:29:09;;;;;;;12.85;4.03;;;24.00;1.00;;;;;;5107318;28;20646;-75
2023/09/28 10:31:39;;;;;;;12.57;3.70;;;24.10;1.00;;;;;;5099752;28;20183;-73
2023/09/28 10:34:06;;;;;;;12.50;3.90;;;24.50;1.00;;;;;;5109836;28;20600;-74
2023/09/28 10:36:34;;;;;;;13.13;3.92;;;24.70;1.00;;;;;;5094397;28;20220;-74
2023/09/28 10:39:15;;;;;;;10.40;4.13;;;25.30;99.90;;;;;;5108494;28;20182;-75
2023/09/28 10:41:49;;;;;;;11.88;3.55;;;25.90;1.00;;;;;;5100281;28;20191;-74
2023/09/28 10:44:16;;;;;;;10.90;3.95;;;26.10;1.00;;;;;;5102866;28;20235;-78
2023/09/28 10:46:45;;;;;;;8.55;3.38;;;26.00;99.90;;;;;;5103157;28;20227;-75
2023/09/28 10:49:21;;;;;;;14.55;3.88;;;25.90;1.00;;;;;;5089846;28;20266;-76
2023/09/28 10:51:47;;;;;;;12.88;3.85;;;26.20;1.00;;;;;;5096687;28;20674;-78
2023/09/28 10:54:13;;;;;;;10.35;3.30;;;26.20;99.90;;;;;;5079627;28;20275;-75
2023/09/28 10:56:39;;;;;;;12.10;4.18;;;26.20;99.90;;;;;;5090228;28;20172;-74
2023/09/28 10:59:06;;;;;;;11.57;4.18;;;26.60;99.90;;;;;;5071748;28;20579;-77
2023/09/28 11:01:32;;;;;;;13.60;4.05;;;26.00;99.90;;;;;;5071644;28;20187;-76
2023/09/28 11:03:58;;;;;;;14.20;3.63;;;26.50;99.50;;;;;;5089674;28;20199;-75
2023/09/28 11:06:24;;;;;;;11.20;3.90;;;26.20;5.20;;;;;;5111062;28;20191;-76
2023/09/28 11:08:50;;;;;;;11.63;3.75;;;25.40;99.90;;;;;;5108987;28;20185;-76
2023/09/28 11:11:17;;;;;;;13.00;3.80;;;25.80;1.00;;;;;;5112383;28;20232;-77
2023/09/28 11:13:44;;;;;;;9.60;3.67;;;26.70;99.90;;;;;;5111054;28;20236;-76
2023/09/28 11:16:11;;;;;;;9.27;3.80;;;27.40;1.00;;;;;;5112042;28;20187;-73
2023/09/28 11:18:37;;;;;;;10.98;4.18;;;27.60;1.00;;;;;;5085308;28;20250;-76
2023/09/28 11:21:03;;;;;;;9.32;3.60;;;27.50;1.00;;;;;;5091271;28;20220;-77
2023/09/28 11:23:29;;;;;;;12.15;3.67;;;27.50;1.00;;;;;;5091557;28;20178;-79
2023/09/28 11:25:55;;;;;;;6.28;3.10;;;27.20;1.00;;;;;;5091687;28;20236;-74
2023/09/28 11:28:24;;;;;;;12.95;3.75;;;26.20;1.00;;;;;;5091457;28;20180;-74
2023/09/28 11:31:10;;;;;;;11.13;3.53;;;26.30;1.00;;;;;;5094413;28;20611;-70
2023/09/28 11:33:40;;;;;;;9.70;3.58;;;26.50;1.00;;;;;;5097452;28;20233;-71
2023/09/28 11:36:06;;;;;;;11.32;3.53;;;26.90;1.00;;;;;;5091045;28;20244;-71
2023/09/28 11:38:33;;;;;;;8.13;2.92;;;26.70;1.00;;;;;;5103813;28;20178;-70
2023/09/28 11:41:02;;;;;;;7.93;3.20;;;26.00;1.00;;;;;;5102126;28;20164;-69
2023/09/28 11:43:28;;;;;;;6.75;2.75;;;25.50;1.00;;;;;;5111236;28;20215;-70
2023/09/28 11:45:53;;;;;;;9.27;2.90;;;25.40;1.00;;;;;;5096753;28;20167;-68
2023/09/28 11:48:20;;;;;;;8.57;3.60;;;25.20;24.00;;;;;;5094407;28;20498;-70
2023/09/28 11:50:47;;;;;;;9.82;3.10;;;24.50;99.90;;;;;;5104556;28;20266;-72
2023/09/28 11:53:14;;;;;;;10.88;3.40;;;24.30;1.00;;;;;;5100380;28;20179;-72
2023/09/28 11:55:41;;;;;;;9.57;3.45;;;24.20;99.90;;;;;;5095357;28;20530;-71
2023/09/28 11:58:09;;;;;;;6.75;3.17;;;24.20;1.00;;;;;;5107487;28;20497;-71
2023/09/28 12:00:35;;;;;;;10.65;3.50;;;24.30;1.00;;;;;;5094503;28;20200;-71
2023/09/28 12:03:02;;;;;;;9.90;3.53;;;24.40;1.00;;;;;;5102894;28;20168;-72
2023/09/28 12:05:29;;;;;;;10.32;3.60;;;24.30;99.90;;;;;;5098847;28;20182;-71
2023/09/28 12:07:55;;;;;;;13.73;3.83;;;24.50;1.00;;;;;;5110695;28;20195;-71
2023/09/28 12:10:21;;;;;;;12.30;3.65;;;24.40;99.90;;;;;;5094532;28;20822;-69
2023/09/28 12:12:46;;;;;;;8.82;3.22;;;24.50;1.00;;;;;;5105132;28;20171;-71
2023/09/28 12:15:14;;;;;;;11.77;3.47;;;24.60;99.90;;;;;;5099031;28;20615;-71
2023/09/28 12:17:40;;;;;;;9.00;3.55;;;24.30;1.00;;;;;;5110264;28;20190;-72
2023/09/28 12:20:14;;;;;;;10.13;3.50;;;24.00;99.90;;;;;;5093777;28;20160;-71
2023/09/28 12:22:41;;;;;;;9.15;3.35;;;24.10;1.00;;;;;;5104263;28;20236;-71
2023/09/28 12:25:08;;;;;;;11.93;3.83;;;24.50;99.90;;;;;;5095993;28;20179;-71
2023/09/28 12:27:35;;;;;;;10.05;3.67;;;24.40;99.90;;;;;;5093036;28;20663;-69
2023/09/28 12:30:02;;;;;;;8.23;3.60;;;24.10;99.90;;;;;;5097835;28;20168;-71
2023/09/28 12:32:29;;;;;;;14.50;4.45;;;24.20;99.90;;;;;;5092045;28;20206;-72
2023/09/28 12:34:55;;;;;;;12.88;4.78;;;24.40;1.00;;;;;;5094597;28;20253;-72
2023/09/28 12:37:21;;;;;;;7.00;3.50;;;24.60;99.90;;;;;;5096946;28;20515;-72
2023/09/28 12:39:48;;;;;;;11.70;3.65;;;24.60;89.30;;;;;;5093889;28;20206;-74
2023/09/28 12:42:16;;;;;;;11.02;3.78;;;23.90;99.90;;;;;;5107910;28;20200;-70
2023/09/28 12:44:42;;;;;;;10.18;3.90;;;23.70;1.00;;;;;;5105430;28;20217;-71